createdAt,value
2022-12-20T00:01:54.895Z,1.27
2022-12-20T00:04:21.958Z,1.60
2022-12-20T00:06:48.907Z,1.20
2022-12-20T00:09:15.953Z,1.33
2022-12-20T00:11:43.536Z,1.30
2022-12-20T00:14:10.712Z,1.00
2022-12-20T00:16:37.863Z,0.82
2022-12-20T00:19:06.250Z,1.38
2022-12-20T00:21:34.490Z,0.90
2022-12-20T00:24:01.530Z,1.55
2022-12-20T00:26:29.830Z,1.15
2022-12-20T00:28:56.950Z,1.60
2022-12-20T00:31:24.808Z,1.38
2022-12-20T00:33:53.255Z,1.27
2022-12-20T00:36:20.229Z,1.00
2022-12-20T00:38:48.233Z,0.95
2022-12-20T00:41:17.494Z,1.30
2022-12-20T00:43:44.498Z,0.95
2022-12-20T00:46:11.881Z,1.10
2022-12-20T00:48:38.858Z,0.80
2022-12-20T00:51:10.293Z,0.90
2022-12-20T00:53:37.386Z,0.93
2022-12-20T00:56:04.643Z,1.10
2022-12-20T00:58:32.800Z,0.80
2022-12-20T01:00:59.800Z,0.80
2022-12-20T01:03:26.910Z,0.90
2022-12-20T01:05:55.831Z,0.70
2022-12-20T01:08:22.884Z,1.20
2022-12-20T01:11:20.162Z,0.93
2022-12-20T01:13:48.702Z,1.08
2022-12-20T01:16:23.867Z,0.88
2022-12-20T01:18:50.831Z,0.88
2022-12-20T01:21:18.282Z,1.25
2022-12-20T01:23:45.316Z,0.90
2022-12-20T01:26:14.104Z,1.30
2022-12-20T01:28:42.894Z,0.90
2022-12-20T01:31:11.078Z,1.00
2022-12-20T01:33:38.085Z,0.98
2022-12-20T01:36:06.728Z,1.00
2022-12-20T01:38:33.687Z,1.02
2022-12-20T01:41:01.110Z,0.80
2022-12-20T01:43:53.621Z,1.13
2022-12-20T01:46:21.780Z,1.13
2022-12-20T01:49:11.447Z,1.52
2022-12-20T01:51:41.874Z,1.20
2022-12-20T01:54:12.828Z,1.50
2022-12-20T01:56:40.534Z,1.33
2022-12-20T01:59:07.710Z,1.50
2022-12-20T02:01:34.719Z,1.02
2022-12-20T02:04:01.850Z,1.30
2022-12-20T02:06:28.694Z,1.10
2022-12-20T02:08:58.732Z,1.08
2022-12-20T02:11:31.380Z,1.40
2022-12-20T02:14:32.303Z,1.30
2022-12-20T02:17:30.253Z,1.23
2022-12-20T02:20:00.183Z,1.27
2022-12-20T02:23:06.279Z,0.90
2022-12-20T02:25:59.295Z,0.80
2022-12-20T02:28:28.905Z,1.05
2022-12-20T02:30:55.673Z,0.70
2022-12-20T02:33:22.452Z,1.50
2022-12-20T02:35:49.310Z,1.00
2022-12-20T02:38:26.680Z,0.73
2022-12-20T02:40:57.262Z,1.42
2022-12-20T02:43:42.466Z,0.95
2022-12-20T02:46:10.190Z,0.75
2022-12-20T02:48:37.145Z,0.80
2022-12-20T02:51:04.272Z,1.20
2022-12-20T02:53:31.372Z,0.50
2022-12-20T02:55:59.883Z,0.82
2022-12-20T02:58:43.680Z,0.80
2022-12-20T03:01:13.982Z,0.70
2022-12-20T03:03:40.833Z,0.70
2022-12-20T03:06:07.955Z,0.70
2022-12-20T03:08:34.814Z,1.25
2022-12-20T03:11:01.611Z,0.80
2022-12-20T03:13:28.398Z,0.98
2022-12-20T03:15:55.260Z,1.10
2022-12-20T03:18:22.155Z,1.63
2022-12-20T03:20:49.096Z,0.93
2022-12-20T03:23:15.896Z,0.90
2022-12-20T03:25:42.719Z,0.93
2022-12-20T03:28:09.521Z,0.90
2022-12-20T03:30:36.588Z,1.13
2022-12-20T03:33:03.391Z,1.00
2022-12-20T03:35:30.320Z,0.90
2022-12-20T03:37:57.275Z,1.20
2022-12-20T03:40:24.224Z,1.20
2022-12-20T03:42:51.121Z,1.23
2022-12-20T03:45:18.061Z,1.00
2022-12-20T03:47:44.883Z,1.02
2022-12-20T03:50:12.348Z,0.88
2022-12-20T03:52:39.164Z,0.85
2022-12-20T03:55:06.722Z,1.20
2022-12-20T03:57:33.545Z,1.10
2022-12-20T04:00:00.383Z,1.35
2022-12-20T04:02:27.366Z,1.10
2022-12-20T04:04:54.283Z,1.20
2022-12-20T04:07:21.045Z,1.00
2022-12-20T04:09:47.917Z,1.20
2022-12-20T04:12:14.759Z,0.93
2022-12-20T04:14:41.597Z,0.90
2022-12-20T04:17:08.635Z,1.27
2022-12-20T04:19:35.420Z,1.38
2022-12-20T04:22:05.672Z,1.45
2022-12-20T04:24:33.109Z,1.40
2022-12-20T04:26:59.939Z,1.27
2022-12-20T04:29:26.759Z,1.20
2022-12-20T04:31:54.213Z,1.20
2022-12-20T04:34:21.135Z,1.52
2022-12-20T04:36:48.128Z,1.52
2022-12-20T04:39:15.023Z,1.30
2022-12-20T04:41:42.167Z,1.00
2022-12-20T04:44:08.985Z,1.25
2022-12-20T04:46:35.898Z,1.30
2022-12-20T04:49:02.811Z,1.65
2022-12-20T04:51:29.678Z,1.27
2022-12-20T04:53:56.674Z,1.25
2022-12-20T04:56:25.221Z,1.33
2022-12-20T04:58:52.646Z,1.40
2022-12-20T05:01:19.941Z,1.50
2022-12-20T05:03:47.177Z,1.73
2022-12-20T05:06:14.204Z,1.60
2022-12-20T05:08:41.138Z,1.52
2022-12-20T05:11:08.311Z,1.55
2022-12-20T05:13:35.150Z,1.60
2022-12-20T05:16:02.130Z,1.40
2022-12-20T05:18:29.058Z,1.50
2022-12-20T05:21:18.620Z,1.55
2022-12-20T05:24:04.382Z,1.33
2022-12-20T05:26:32.808Z,1.35
2022-12-20T05:28:59.604Z,1.67
2022-12-20T05:31:26.626Z,1.60
2022-12-20T05:33:54.347Z,1.35
2022-12-20T05:36:21.146Z,1.40
2022-12-20T05:38:47.927Z,1.38
2022-12-20T05:41:14.815Z,1.48
2022-12-20T05:43:41.906Z,1.48
2022-12-20T05:46:08.941Z,1.30
2022-12-20T05:48:35.758Z,1.50
2022-12-20T05:51:03.997Z,1.70
2022-12-20T05:53:30.961Z,1.40
2022-12-20T05:55:58.051Z,1.38
2022-12-20T05:58:24.816Z,1.45
2022-12-20T06:00:51.646Z,1.67
2022-12-20T06:03:18.955Z,1.48
2022-12-20T06:05:46.134Z,1.17
2022-12-20T06:08:13.322Z,1.70
2022-12-20T06:10:41.496Z,1.50
2022-12-20T06:13:08.871Z,1.63
2022-12-20T06:15:35.948Z,1.25
2022-12-20T06:18:02.795Z,1.60
2022-12-20T06:20:29.749Z,1.98
2022-12-20T06:22:56.573Z,2.22
2022-12-20T06:25:23.509Z,1.42
2022-12-20T06:27:50.307Z,1.60
2022-12-20T06:30:17.285Z,2.10
2022-12-20T06:32:44.219Z,2.13
2022-12-20T06:35:11.204Z,2.08
2022-12-20T06:37:40.493Z,2.13
2022-12-20T06:40:12.483Z,2.03
2022-12-20T06:42:39.370Z,2.30
2022-12-20T06:45:06.775Z,2.25
2022-12-20T06:47:33.610Z,2.13
2022-12-20T06:50:00.439Z,1.90
2022-12-20T06:52:27.324Z,1.83
2022-12-20T06:54:54.109Z,1.90
2022-12-20T06:57:21.087Z,2.10
2022-12-20T06:59:47.834Z,1.98
2022-12-20T07:02:15.006Z,1.67
2022-12-20T07:04:42.286Z,1.30
2022-12-20T07:07:09.051Z,1.27
2022-12-20T07:09:35.814Z,1.60
2022-12-20T07:12:02.547Z,1.55
2022-12-20T07:14:29.339Z,1.30
2022-12-20T07:16:56.186Z,1.83
2022-12-20T07:19:22.972Z,1.27
2022-12-20T07:21:49.800Z,0.77
2022-12-20T07:24:16.585Z,0.77
2022-12-20T07:26:46.324Z,0.40
2022-12-20T07:32:00.510Z,0.20
2022-12-20T07:34:27.371Z,0.50
2022-12-20T07:36:54.132Z,0.30
2022-12-20T07:39:20.886Z,0.30
2022-12-20T07:41:47.624Z,0.40
2022-12-20T07:44:14.422Z,0.30
2022-12-20T07:46:41.294Z,0.38
2022-12-20T07:49:09.066Z,0.30
2022-12-20T07:51:38.414Z,0.40
2022-12-20T07:54:09.596Z,0.20
2022-12-20T07:56:41.105Z,0.28
2022-12-20T07:59:08.512Z,0.40
2022-12-20T08:01:35.688Z,0.20
2022-12-20T08:04:23.642Z,0.40
2022-12-20T08:06:50.443Z,0.20
2022-12-20T08:09:17.222Z,0.20
2022-12-20T08:11:45.261Z,0.25
2022-12-20T08:14:12.063Z,0.17
2022-12-20T08:16:38.990Z,0.30
2022-12-20T08:19:05.848Z,0.20
2022-12-20T08:21:32.681Z,0.20
2022-12-20T08:23:59.502Z,0.20
2022-12-20T08:26:26.479Z,0.20
2022-12-20T08:28:54.166Z,0.20
2022-12-20T08:31:20.933Z,0.20
2022-12-20T08:33:48.907Z,0.20
2022-12-20T08:36:15.744Z,0.20
2022-12-20T08:38:42.602Z,0.20
2022-12-20T08:41:11.366Z,0.30
2022-12-20T08:43:38.240Z,0.20
2022-12-20T08:46:05.697Z,0.25
2022-12-20T08:48:32.660Z,0.30
2022-12-20T08:51:01.201Z,0.30
2022-12-20T08:53:29.411Z,0.20
2022-12-20T08:56:04.397Z,0.30
2022-12-20T08:58:31.180Z,0.20
2022-12-20T09:01:06.500Z,0.30
2022-12-20T09:03:34.168Z,0.40
2022-12-20T09:06:00.983Z,0.30
2022-12-20T09:08:27.765Z,0.30
2022-12-20T09:10:54.751Z,0.40
2022-12-20T09:13:21.666Z,0.22
2022-12-20T09:15:48.534Z,0.20
2022-12-20T09:18:15.372Z,0.55
2022-12-20T09:20:47.857Z,0.52
2022-12-20T09:23:14.697Z,0.30
2022-12-20T09:25:41.661Z,0.30
2022-12-20T09:28:08.470Z,0.40
2022-12-20T09:30:35.253Z,0.65
2022-12-20T09:33:10.229Z,0.40
2022-12-20T09:35:37.224Z,0.35
2022-12-20T09:38:05.792Z,0.20
2022-12-20T09:40:32.738Z,0.38
2022-12-20T09:42:59.536Z,0.40
2022-12-20T09:45:28.637Z,0.63
2022-12-20T09:47:55.459Z,0.40
2022-12-20T09:50:35.730Z,0.40
2022-12-20T09:53:25.095Z,0.40
2022-12-20T09:55:56.571Z,0.40
2022-12-20T09:58:30.332Z,0.50
2022-12-20T10:00:58.131Z,0.30
2022-12-20T10:03:31.667Z,0.45
2022-12-20T10:06:12.864Z,0.35
2022-12-20T10:08:50.877Z,0.38
2022-12-20T10:11:50.438Z,0.40
2022-12-20T10:14:41.919Z,0.30
2022-12-20T10:17:32.829Z,0.30
2022-12-20T10:20:30.336Z,0.45
2022-12-20T10:23:09.024Z,0.32
2022-12-20T10:25:35.876Z,0.55
2022-12-20T10:28:04.904Z,0.43
2022-12-20T10:30:32.703Z,0.50
2022-12-20T10:32:59.569Z,0.70
2022-12-20T10:35:31.377Z,0.43
2022-12-20T10:38:08.456Z,0.55
2022-12-20T10:43:27.727Z,0.52
2022-12-20T10:46:08.122Z,1.10
2022-12-20T10:48:36.626Z,0.70
2022-12-20T10:51:16.105Z,0.80
2022-12-20T10:54:01.346Z,0.90
2022-12-20T10:56:32.001Z,0.55
2022-12-20T10:59:00.795Z,0.50
2022-12-20T11:01:32.672Z,0.70
2022-12-20T11:04:07.323Z,0.65
2022-12-20T11:06:37.218Z,0.80
2022-12-20T11:09:25.531Z,0.60
2022-12-20T11:12:10.558Z,0.65
2022-12-20T11:14:39.598Z,0.35
2022-12-20T11:17:24.597Z,0.55
2022-12-20T11:20:05.736Z,0.65
2022-12-20T11:22:44.233Z,0.52
2022-12-20T11:25:29.242Z,0.50
2022-12-20T11:28:19.382Z,0.88
2022-12-20T11:31:13.104Z,0.70
2022-12-20T11:33:49.021Z,0.70
2022-12-20T11:36:18.498Z,0.57
2022-12-20T11:38:59.742Z,1.05
2022-12-20T11:41:57.632Z,1.00
2022-12-20T11:44:53.879Z,0.80
2022-12-20T11:47:36.931Z,1.17
2022-12-20T11:50:16.610Z,0.75
2022-12-20T11:52:55.069Z,1.10
2022-12-20T11:55:31.468Z,1.00
2022-12-20T11:58:26.298Z,1.48
2022-12-20T12:00:58.312Z,1.67
2022-12-20T12:03:32.924Z,1.00
2022-12-20T12:06:10.581Z,1.20
2022-12-20T12:09:09.059Z,1.55
2022-12-20T12:12:06.004Z,1.15
2022-12-20T12:14:58.800Z,1.40
2022-12-20T12:17:50.662Z,1.33
2022-12-20T12:20:32.063Z,1.27
2022-12-20T12:23:03.590Z,1.65
2022-12-20T12:25:30.454Z,1.88
2022-12-20T12:27:57.225Z,1.85
2022-12-20T12:30:24.089Z,1.13
2022-12-20T12:32:55.961Z,1.33
2022-12-20T12:36:00.498Z,1.40
2022-12-20T12:38:33.068Z,2.28
2022-12-20T12:41:05.909Z,1.55
2022-12-20T12:43:51.711Z,1.50
2022-12-20T12:46:26.992Z,1.73
2022-12-20T12:49:04.631Z,1.95
2022-12-20T12:51:38.883Z,1.73
2022-12-20T12:54:18.981Z,1.70
2022-12-20T12:56:47.231Z,1.42
2022-12-20T12:59:34.047Z,1.42
2022-12-20T13:02:04.179Z,1.33
2022-12-20T13:05:06.547Z,1.50
2022-12-20T13:07:33.389Z,1.30
2022-12-20T13:10:24.895Z,1.50
2022-12-20T13:12:52.704Z,1.83
2022-12-20T13:15:22.813Z,1.85
2022-12-20T13:17:53.309Z,1.98
2022-12-20T13:20:22.908Z,1.40
2022-12-20T13:23:08.020Z,1.40
2022-12-20T13:25:38.378Z,1.50
2022-12-20T13:28:23.359Z,1.13
2022-12-20T13:31:02.174Z,2.63
2022-12-20T13:33:45.273Z,1.30
2022-12-20T13:36:12.011Z,1.50
2022-12-20T13:38:55.866Z,1.45
2022-12-20T13:41:40.330Z,1.30
2022-12-20T13:44:15.931Z,1.88
2022-12-20T13:46:50.594Z,1.90
2022-12-20T13:49:29.225Z,1.88
2022-12-20T13:52:11.364Z,2.53
2022-12-20T13:54:45.251Z,2.13
2022-12-20T13:57:19.340Z,1.80
2022-12-20T13:59:49.639Z,1.33
2022-12-20T14:02:29.905Z,1.27
2022-12-20T14:05:02.167Z,1.25
2022-12-20T14:07:29.806Z,1.53
2022-12-20T14:09:59.110Z,1.20
2022-12-20T14:12:31.318Z,1.10
2022-12-20T14:15:03.107Z,1.25
2022-12-20T14:17:32.208Z,1.30
2022-12-20T14:20:16.628Z,1.35
2022-12-20T14:22:51.535Z,1.60
2022-12-20T14:25:21.251Z,1.10
2022-12-20T14:27:48.045Z,1.20
2022-12-20T14:30:35.619Z,1.10
2022-12-20T14:33:02.457Z,1.70
2022-12-20T14:35:29.513Z,1.17
2022-12-20T14:38:00.718Z,1.48
2022-12-20T14:40:27.991Z,1.80
2022-12-20T14:42:54.981Z,1.75
2022-12-20T14:45:30.889Z,1.60
2022-12-20T14:47:59.126Z,1.52
2022-12-20T14:50:31.199Z,2.92
2022-12-20T14:52:58.037Z,3.22
2022-12-20T14:55:33.095Z,2.30
2022-12-20T14:57:59.858Z,2.65
2022-12-20T15:00:33.998Z,1.98
2022-12-20T15:03:11.259Z,1.60
2022-12-20T15:05:43.252Z,1.55
2022-12-20T15:08:23.841Z,1.90
2022-12-20T15:11:10.511Z,1.60
2022-12-20T15:13:38.245Z,1.20
2022-12-20T15:16:16.285Z,1.30
2022-12-20T15:18:43.218Z,0.90
2022-12-20T15:21:19.895Z,0.77
2022-12-20T15:23:48.452Z,1.00
2022-12-20T15:26:16.394Z,0.90
2022-12-20T15:28:43.248Z,0.75
2022-12-20T15:31:11.399Z,0.70
2022-12-20T15:33:39.544Z,0.88
2022-12-20T15:36:06.791Z,0.70
2022-12-20T15:39:10.571Z,1.05
2022-12-20T15:41:29.031Z,0.90
2022-12-20T15:43:57.500Z,0.93
2022-12-20T15:46:24.464Z,1.10
2022-12-20T15:48:51.328Z,1.00
2022-12-20T15:51:30.925Z,0.82
2022-12-20T15:53:57.993Z,0.70
2022-12-20T15:56:27.141Z,0.85
2022-12-20T15:58:54.046Z,0.80
2022-12-20T16:01:24.273Z,0.75
2022-12-20T16:03:51.146Z,0.77
2022-12-20T16:06:17.995Z,0.63
2022-12-20T16:08:44.846Z,0.70
2022-12-20T16:11:21.364Z,0.60
2022-12-20T16:13:48.147Z,0.90
2022-12-20T16:16:19.383Z,0.70
2022-12-20T16:18:46.287Z,0.60
2022-12-20T16:21:24.598Z,0.50
2022-12-20T16:23:51.646Z,0.80
2022-12-20T16:26:22.739Z,1.02
2022-12-20T16:28:50.079Z,0.60
2022-12-20T16:31:31.032Z,0.55
2022-12-20T16:33:58.856Z,0.73
2022-12-20T16:36:25.781Z,0.63
2022-12-20T16:38:52.744Z,0.70
2022-12-20T16:41:21.106Z,0.80
2022-12-20T16:43:48.261Z,0.70
2022-12-20T16:46:19.764Z,1.20
2022-12-20T16:48:46.673Z,1.83
2022-12-20T16:51:39.940Z,0.73
2022-12-20T16:54:20.456Z,0.98
2022-12-20T16:56:47.948Z,1.08
2022-12-20T16:59:20.588Z,0.70
2022-12-20T17:01:49.051Z,0.75
2022-12-20T17:04:17.633Z,0.85
2022-12-20T17:06:44.526Z,0.65
2022-12-20T17:09:11.435Z,0.60
2022-12-20T17:11:38.325Z,0.63
2022-12-20T17:14:12.097Z,0.82
2022-12-20T17:16:39.888Z,1.45
2022-12-20T17:19:06.759Z,0.77
2022-12-20T17:24:23.489Z,0.52
2022-12-20T17:26:50.375Z,0.55
2022-12-20T17:29:17.906Z,0.85
2022-12-20T17:31:46.410Z,0.65
2022-12-20T17:34:18.035Z,0.90
2022-12-20T17:36:45.467Z,0.63
2022-12-20T17:39:12.329Z,0.60
2022-12-20T17:41:39.231Z,0.90
2022-12-20T17:44:06.591Z,1.50
2022-12-20T17:46:33.692Z,1.60
2022-12-20T17:49:00.608Z,1.02
2022-12-20T17:51:28.872Z,1.30
2022-12-20T17:53:59.619Z,1.25
2022-12-20T17:56:30.692Z,1.38
2022-12-20T17:58:57.728Z,1.20
2022-12-20T18:01:29.520Z,1.27
2022-12-20T18:04:06.326Z,0.95
2022-12-20T18:06:34.460Z,1.20
2022-12-20T18:09:01.385Z,1.02
2022-12-20T18:11:28.507Z,1.20
2022-12-20T18:13:57.331Z,0.95
2022-12-20T18:16:26.959Z,1.08
2022-12-20T18:18:53.965Z,1.08
2022-12-20T18:21:21.150Z,0.90
2022-12-20T18:23:48.391Z,0.77
2022-12-20T18:26:22.904Z,0.70
2022-12-20T18:28:51.578Z,0.90
2022-12-20T18:31:19.471Z,0.95
2022-12-20T18:33:50.039Z,0.90
2022-12-20T18:36:21.210Z,0.85
2022-12-20T18:38:48.604Z,0.70
2022-12-20T18:41:25.780Z,0.70
2022-12-20T18:43:53.494Z,0.93
2022-12-20T18:46:21.447Z,0.60
2022-12-20T18:48:49.964Z,0.90
2022-12-20T18:51:18.299Z,0.90
2022-12-20T18:53:46.212Z,0.85
2022-12-20T18:56:17.896Z,1.42
2022-12-20T18:58:44.847Z,0.90
2022-12-20T19:01:15.397Z,0.80
2022-12-20T19:03:42.673Z,0.82
2022-12-20T19:06:10.648Z,0.90
2022-12-20T19:08:38.072Z,0.93
2022-12-20T19:11:06.705Z,1.20
2022-12-20T19:13:33.587Z,0.98
2022-12-20T19:16:04.762Z,1.13
2022-12-20T19:18:31.564Z,0.60
2022-12-20T19:21:11.628Z,0.73
2022-12-20T19:23:38.839Z,0.82
2022-12-20T19:26:07.244Z,0.90
2022-12-20T19:28:34.212Z,0.93
2022-12-20T19:31:17.362Z,0.63
2022-12-20T19:33:48.281Z,0.90
2022-12-20T19:36:25.661Z,0.80
2022-12-20T19:38:57.196Z,1.13
2022-12-20T19:41:25.360Z,1.10
2022-12-20T19:43:52.378Z,1.15
2022-12-20T19:46:27.940Z,0.90
2022-12-20T19:48:55.934Z,1.00
2022-12-20T19:51:23.267Z,0.80
2022-12-20T19:53:51.103Z,0.88
2022-12-20T19:56:20.800Z,0.90
2022-12-20T19:58:48.013Z,0.90
2022-12-20T20:01:15.312Z,1.00
2022-12-20T20:03:43.509Z,0.85
2022-12-20T20:06:10.396Z,0.93
2022-12-20T20:08:37.161Z,0.93
2022-12-20T20:11:09.395Z,0.70
2022-12-20T20:13:37.177Z,0.98
2022-12-20T20:16:04.426Z,0.75
2022-12-20T20:18:33.596Z,0.93
2022-12-20T20:21:00.444Z,1.10
2022-12-20T20:23:27.451Z,2.03
2022-12-20T20:25:58.899Z,0.90
2022-12-20T20:28:31.647Z,0.80
2022-12-20T20:31:00.044Z,1.15
2022-12-20T20:33:27.053Z,0.88
2022-12-20T20:35:55.228Z,0.93
2022-12-20T20:38:22.175Z,0.82
2022-12-20T20:40:49.238Z,0.95
2022-12-20T20:43:16.019Z,1.05
2022-12-20T20:45:42.842Z,0.85
2022-12-20T20:48:09.657Z,1.20
2022-12-20T20:50:36.692Z,1.10
2022-12-20T20:53:04.420Z,1.38
2022-12-20T20:55:31.244Z,1.10
2022-12-20T20:57:58.049Z,0.93
2022-12-20T21:00:25.330Z,0.90
2022-12-20T21:02:52.358Z,1.13
2022-12-20T21:08:06.062Z,1.92
2022-12-20T21:10:33.902Z,0.90
2022-12-20T21:13:00.741Z,1.05
2022-12-20T21:15:28.094Z,0.80
2022-12-20T21:17:55.312Z,0.98
2022-12-20T21:20:25.946Z,1.00
2022-12-20T21:22:53.356Z,1.10
2022-12-20T21:25:20.285Z,0.82
2022-12-20T21:27:47.026Z,1.02
2022-12-20T21:30:13.982Z,0.80
2022-12-20T21:32:40.724Z,0.93
2022-12-20T21:35:07.797Z,1.02
2022-12-20T21:37:34.704Z,0.70
2022-12-20T21:40:01.513Z,1.00
2022-12-20T21:42:28.889Z,0.95
2022-12-20T21:44:56.281Z,0.63
2022-12-20T21:47:23.145Z,0.60
2022-12-20T21:49:50.157Z,0.85
2022-12-20T21:52:17.004Z,0.73
2022-12-20T21:54:43.941Z,0.70
2022-12-20T21:57:11.411Z,0.85
2022-12-20T21:59:38.430Z,0.73
2022-12-20T22:02:05.836Z,0.80
2022-12-20T22:04:33.330Z,0.80
2022-12-20T22:07:00.152Z,0.80
2022-12-20T22:09:26.951Z,0.80
2022-12-20T22:11:54.816Z,0.70
2022-12-20T22:14:21.661Z,0.50
2022-12-20T22:16:48.724Z,0.75
2022-12-20T22:19:15.677Z,0.75
2022-12-20T22:21:42.527Z,0.73
2022-12-20T22:24:09.496Z,0.90
2022-12-20T22:26:36.941Z,0.70
2022-12-20T22:29:05.283Z,0.90
2022-12-20T22:31:32.233Z,0.73
2022-12-20T22:33:59.173Z,0.82
2022-12-20T22:36:26.376Z,1.02
2022-12-20T22:38:53.869Z,1.30
2022-12-20T22:41:28.956Z,1.20
2022-12-20T22:43:59.748Z,1.30
2022-12-20T22:46:29.230Z,1.13
2022-12-20T22:48:56.567Z,0.88
2022-12-20T22:51:24.739Z,0.63
2022-12-20T22:53:52.017Z,0.80
2022-12-20T22:56:19.656Z,0.80
2022-12-20T22:58:46.640Z,0.43
2022-12-20T23:01:14.358Z,0.70
2022-12-20T23:03:41.272Z,0.57
2022-12-20T23:06:08.625Z,0.75
2022-12-20T23:08:36.597Z,0.70
2022-12-20T23:11:22.922Z,0.63
2022-12-20T23:14:07.861Z,0.70
2022-12-20T23:16:34.705Z,0.70
2022-12-20T23:19:01.795Z,0.82
2022-12-20T23:21:47.636Z,0.82
2022-12-20T23:24:14.902Z,0.90
2022-12-20T23:26:41.867Z,0.70
2022-12-20T23:29:08.673Z,0.82
2022-12-20T23:31:35.592Z,0.50
2022-12-20T23:34:02.427Z,0.80
2022-12-20T23:36:29.397Z,0.60
2022-12-20T23:38:56.762Z,0.77
2022-12-20T23:41:23.693Z,0.50
2022-12-20T23:43:50.527Z,0.95
2022-12-20T23:46:18.395Z,1.00
2022-12-20T23:48:45.218Z,0.65
2022-12-20T23:51:12.010Z,0.73
2022-12-20T23:53:39.066Z,0.60
2022-12-20T23:56:11.038Z,0.88
2022-12-20T23:58:38.160Z,0.55
